• Join FlightAware (Why Join?)
  • Login
  • US Flag 
11:39PM EDT


 

Airport Tracker/Info


-or-


 

Live Flight TrackerFlight Track Log ✈ AAR8733 ✈ 15-Feb-2014 ✈ RKSS / GMP - RKJY / RSU

Flight Track Log - Related Links

Times and Time Zones

All times are in EST time to prevent confusion due to time zone crossing. See the AAR8733 flight status page for this flight to view local times or setup timezone preferences in your user account.

Time Position Orientation Groundspeed Altitude Reporting Facility
EST Latitude Longitude Course Direction KTS MPH feet Rate Location/Type
08:01PM 37.3380 126.8286 165° South  Level Estimated
08:02PM 37.2557 126.8554 165° South  Level Estimated
08:03PM 37.1734 126.8821 166° South  Level Estimated
08:04PM 37.0911 126.9087 166° South  Level Estimated
08:05PM 37.0088 126.9353 166° South  Level Estimated
08:06PM 36.9265 126.9618 166° South  Level Estimated
08:07PM 36.8442 126.9883 166° South  Level Estimated
08:08PM 36.7618 127.0147 166° South  Level Estimated
08:09PM 36.6795 127.0410 166° South  Level Estimated
08:10PM 36.5972 127.0673 166° South  Level Estimated
08:11PM 36.5148 127.0936 166° South  Level Estimated
08:12PM 36.4325 127.1198 166° South  Level Estimated
08:13PM 36.3502 127.1459 166° South  Level Estimated
08:14PM 36.2678 127.1720 166° South  Level Estimated
08:15PM 36.1854 127.1980 166° South  Level Estimated
08:16PM 36.1031 127.2240 166° South  Level Estimated
08:17PM 36.0207 127.2499 166° South  Level Estimated
08:18PM 35.9383 127.2757 166° South  Level Estimated
08:19PM 35.8559 127.3015 166° South  Level Estimated
08:20PM 35.7735 127.3273 166° South  Level Estimated
08:21PM 35.6912 127.3530 166° South  Level Estimated
08:22PM 35.6087 127.3786 166° South  Level Estimated
08:23PM 35.5263 127.4042 166° South  Level Estimated
08:24PM 35.4439 127.4297 166° South  Level Estimated
08:25PM 35.3615 127.4552 166° South  Level Estimated
08:26PM 35.2791 127.4807 166° South  Level Estimated
08:27PM 35.1967 127.5061 166° South  Level Estimated
08:28PM 35.1142 127.5314 166° South  Level Estimated
08:29PM 35.0318 127.5567 166° South  Level Estimated
08:30PM 34.9493 127.5819 166° South  Level Estimated
08:31PM 34.8669 127.6071 166° South  Level Estimated
08:32PM 34.8398 127.6153 166° South  Level Estimated
08:33PM 34.8398 127.6153 180° South  Level Estimated
08:34PM 34.8398 127.6153 180° South  Level Estimated
08:35PM 34.8398 127.6153 180° South  Level Estimated
08:36PM 34.8398 127.6153 180° South  Level Estimated
08:37PM 34.8398 127.6153 180° South  Level Estimated
08:38PM 34.8398 127.6153 180° South  Level Estimated
08:39PM 34.8398 127.6153 180° South  Level Estimated
08:40PM 34.8398 127.6153 180° South  Level Estimated
08:41PM 34.8398 127.6153 180° South  Level Estimated
08:42PM 34.8398 127.6153 180° South  Level Estimated
08:43PM 34.8398 127.6153 180° South  Level Estimated
08:44PM 34.8398 127.6153 180° South  Level Estimated
08:45PM 34.8398 127.6153 180° South  Level Estimated
08:46PM 34.8398 127.6153 180° South  Level Estimated